Time;durP1;ratioP1;P1;durP2;ratioP2;P2;SDS_P1;SDS_P2;PMS_P1;PMS_P2;Temp;Humidity;BMP_temperature;BMP_pressure;BME280_temperature;BME280_humidity;BME280_pressure;Samples;Min_cycle;Max_cycle;Signal;HPM_P1;HPM_P2
2021/04/26 00:01:12;;;;;;;10.33;6.80;;;8.10;99.90;;;;;;4239876;27;20031;-67
2021/04/26 00:03:13;;;;;;;9.70;6.73;;;8.00;99.90;;;;;;4233246;27;20027;-61
2021/04/26 00:05:15;;;;;;;9.17;6.13;;;8.00;99.90;;;;;;4240501;27;20035;-61
2021/04/26 00:07:16;;;;;;;8.90;6.10;;;8.00;99.90;;;;;;4238797;27;20084;-59
2021/04/26 00:09:17;;;;;;;9.17;6.47;;;8.00;99.90;;;;;;4232259;27;20027;-61
2021/04/26 00:11:18;;;;;;;11.37;5.60;;;8.00;99.90;;;;;;4220119;27;20032;-61
2021/04/26 00:13:20;;;;;;;10.67;5.43;;;7.90;99.90;;;;;;4223727;27;20032;-61
2021/04/26 00:15:29;;;;;;;8.63;5.53;;;7.90;99.90;;;;;;4222073;28;20028;-60
2021/04/26 00:17:30;;;;;;;7.43;5.67;;;7.90;99.90;;;;;;4223018;28;20513;-74
2021/04/26 00:19:31;;;;;;;9.37;5.97;;;7.90;99.90;;;;;;4222040;28;20024;-61
2021/04/26 00:21:33;;;;;;;9.53;5.47;;;7.90;99.90;;;;;;4227763;27;20023;-61
2021/04/26 00:23:34;;;;;;;8.20;5.57;;;7.90;99.90;;;;;;4239134;27;20514;-61
2021/04/26 00:25:35;;;;;;;9.17;5.80;;;7.90;99.90;;;;;;4234026;27;20475;-75
2021/04/26 00:27:38;;;;;;;8.20;5.67;;;7.90;99.90;;;;;;4222313;28;20619;-62
2021/04/26 00:29:39;;;;;;;9.93;5.47;;;7.90;99.90;;;;;;4222439;28;20031;-61
2021/04/26 00:31:40;;;;;;;10.17;6.10;;;7.90;99.90;;;;;;4221459;28;20495;-63
2021/04/26 00:33:41;;;;;;;11.30;6.13;;;7.90;99.90;;;;;;4223271;28;20047;-61
2021/04/26 00:35:43;;;;;;;12.83;5.93;;;7.90;99.90;;;;;;4223163;27;20101;-62
2021/04/26 00:37:46;;;;;;;12.37;7.57;;;7.90;99.90;;;;;;4222834;28;20033;-62
2021/04/26 00:39:47;;;;;;;9.47;5.87;;;8.00;99.90;;;;;;4222749;28;20116;-63
2021/04/26 00:41:48;;;;;;;8.67;6.40;;;7.90;99.90;;;;;;4220453;28;20425;-62
2021/04/26 00:43:49;;;;;;;9.53;5.77;;;7.90;99.90;;;;;;4223104;28;20098;-63
2021/04/26 00:45:50;;;;;;;10.60;6.00;;;7.90;99.90;;;;;;4221597;28;20035;-61
2021/04/26 00:47:52;;;;;;;10.70;6.07;;;7.90;99.90;;;;;;4223495;28;20051;-61
2021/04/26 00:49:54;;;;;;;11.77;5.77;;;7.90;99.90;;;;;;4221810;28;20156;-61
2021/04/26 00:51:55;;;;;;;9.47;6.47;;;7.90;99.90;;;;;;4226290;28;20072;-61
2021/04/26 00:53:56;;;;;;;25.67;6.63;;;7.90;99.90;;;;;;4237914;28;20780;-61
2021/04/26 00:55:57;;;;;;;10.43;6.17;;;7.90;99.90;;;;;;4239599;28;20031;-69
2021/04/26 00:57:59;;;;;;;10.43;6.37;;;7.80;99.90;;;;;;4239457;28;20421;-76
2021/04/26 01:00:00;;;;;;;9.30;5.90;;;7.80;99.90;;;;;;4223428;28;20065;-61
2021/04/26 01:02:02;;;;;;;8.93;6.03;;;7.80;99.90;;;;;;4222421;28;20084;-69
2021/04/26 01:04:04;;;;;;;9.40;6.03;;;7.70;99.90;;;;;;4222113;28;20080;-80
2021/04/26 01:06:05;;;;;;;7.53;5.80;;;7.60;99.90;;;;;;4228869;28;20100;-70
2021/04/26 01:08:06;;;;;;;9.27;5.80;;;7.60;99.90;;;;;;4239844;27;20108;-67
2021/04/26 01:10:11;;;;;;;10.27;6.33;;;7.60;99.90;;;;;;4243536;27;20023;-64
2021/04/26 01:12:22;;;;;;;7.53;5.70;;;7.60;99.90;;;;;;4241906;27;20118;-76
2021/04/26 01:14:43;;;;;;;9.37;5.87;;;7.50;99.90;;;;;;4233176;27;20035;-61
2021/04/26 01:17:20;;;;;;;9.50;6.50;;;7.40;99.90;;;;;;4237612;27;20164;-65
2021/04/26 01:19:29;;;;;;;10.00;5.83;;;7.40;99.90;;;;;;4240760;27;21336;-60
2021/04/26 01:21:30;;;;;;;11.70;6.32;;;7.40;99.90;;;;;;4242092;27;20031;-60
2021/04/26 01:24:09;;;;;;;8.53;6.00;;;7.30;99.90;;;;;;4240827;27;20048;-61
2021/04/26 01:26:28;;;;;;;10.00;6.00;;;7.30;99.90;;;;;;4242530;27;20047;-60
2021/04/26 01:28:52;;;;;;;8.93;6.33;;;7.20;99.90;;;;;;4230041;27;20116;-79
2021/04/26 01:30:59;;;;;;;10.53;6.77;;;7.20;99.90;;;;;;4234778;27;20429;-60
2021/04/26 01:33:08;;;;;;;9.50;6.80;;;7.10;99.90;;;;;;4231864;27;20284;-63
2021/04/26 01:35:12;;;;;;;7.37;6.10;;;7.10;99.90;;;;;;4226039;28;20283;-61
2021/04/26 01:37:15;;;;;;;11.93;6.33;;;7.00;99.90;;;;;;4224726;28;20338;-63
2021/04/26 01:39:18;;;;;;;10.37;6.53;;;7.00;99.90;;;;;;4225855;27;20549;-61
2021/04/26 01:41:22;;;;;;;9.10;6.40;;;6.90;99.90;;;;;;4224840;28;20425;-61
2021/04/26 01:43:26;;;;;;;9.80;6.47;;;6.90;99.90;;;;;;4225318;28;20065;-61
2021/04/26 01:45:28;;;;;;;11.57;6.67;;;6.80;99.90;;;;;;4224745;28;20260;-60
2021/04/26 01:47:31;;;;;;;10.27;7.00;;;6.80;99.90;;;;;;4234943;27;20035;-61
2021/04/26 01:49:33;;;;;;;13.80;6.67;;;6.80;99.90;;;;;;4241928;27;20251;-61
2021/04/26 01:51:34;;;;;;;9.10;6.50;;;6.80;99.90;;;;;;4231452;27;20283;-62
2021/04/26 01:53:38;;;;;;;10.13;6.67;;;6.70;99.90;;;;;;4242277;27;20080;-60
2021/04/26 01:55:39;;;;;;;10.57;7.10;;;6.70;99.90;;;;;;4239824;27;20742;-61
2021/04/26 01:57:42;;;;;;;11.40;7.10;;;6.70;99.90;;;;;;4240690;27;20299;-61
2021/04/26 01:59:44;;;;;;;11.30;6.63;;;6.70;99.90;;;;;;4240548;27;20104;-64
2021/04/26 02:01:46;;;;;;;9.83;6.80;;;6.70;99.90;;;;;;4228649;27;20759;-60
2021/04/26 02:03:53;;;;;;;10.13;5.93;;;6.60;99.90;;;;;;4224196;27;20314;-60
2021/04/26 02:05:56;;;;;;;11.87;6.80;;;6.50;99.90;;;;;;4226496;27;20761;-61
2021/04/26 02:07:58;;;;;;;11.93;6.97;;;6.50;99.90;;;;;;4240720;27;20283;-61
2021/04/26 02:10:00;;;;;;;11.90;6.57;;;6.50;99.90;;;;;;4238075;27;20302;-61
2021/04/26 02:12:02;;;;;;;10.73;6.87;;;6.40;99.90;;;;;;4224039;27;20333;-63
2021/04/26 02:14:03;;;;;;;9.53;5.97;;;6.30;99.90;;;;;;4223831;28;20862;-60
2021/04/26 02:16:05;;;;;;;8.90;5.97;;;6.30;99.90;;;;;;4227723;27;20832;-61
2021/04/26 02:18:07;;;;;;;8.90;6.07;;;6.30;99.90;;;;;;4223190;28;20280;-68
2021/04/26 02:20:11;;;;;;;11.80;6.80;;;6.30;99.90;;;;;;4223797;27;20272;-65
2021/04/26 02:22:13;;;;;;;12.80;7.13;;;6.30;99.90;;;;;;4223869;28;20275;-60
2021/04/26 02:24:14;;;;;;;12.60;7.10;;;6.30;99.90;;;;;;4236078;27;20275;-62
2021/04/26 02:26:15;;;;;;;10.83;6.93;;;6.20;99.90;;;;;;4241409;27;20344;-61
2021/04/26 02:28:16;;;;;;;10.43;6.07;;;6.20;99.90;;;;;;4239732;27;20292;-61
2021/04/26 02:30:18;;;;;;;10.17;6.70;;;6.20;99.90;;;;;;4236778;27;20276;-61
2021/04/26 02:32:28;;;;;;;7.60;6.03;;;6.10;99.90;;;;;;4225229;28;20596;-61
2021/04/26 02:34:35;;;;;;;9.05;5.68;;;6.10;99.90;;;;;;4228295;27;20689;-61
2021/04/26 02:36:43;;;;;;;12.43;6.67;;;6.00;99.90;;;;;;4225189;28;20085;-63
2021/04/26 02:38:51;;;;;;;11.20;6.17;;;5.90;99.90;;;;;;4230847;27;20275;-63
2021/04/26 02:40:57;;;;;;;13.23;7.00;;;5.90;99.90;;;;;;4226138;27;20367;-61
2021/04/26 02:43:00;;;;;;;9.57;6.23;;;5.90;99.90;;;;;;4223594;28;20276;-59
2021/04/26 02:45:04;;;;;;;9.90;6.73;;;5.80;99.90;;;;;;4224784;28;20256;-60
2021/04/26 02:47:09;;;;;;;10.47;6.30;;;5.80;99.90;;;;;;4223619;28;20305;-61
2021/04/26 02:49:11;;;;;;;12.83;6.73;;;5.70;99.90;;;;;;4236060;27;20295;-61
2021/04/26 02:51:13;;;;;;;9.77;6.70;;;5.70;99.90;;;;;;4239969;27;20665;-74
2021/04/26 02:53:16;;;;;;;10.70;7.10;;;5.70;99.90;;;;;;4241047;27;20743;-63
2021/04/26 02:55:19;;;;;;;11.47;7.40;;;5.60;99.90;;;;;;4239557;27;20671;-62
2021/04/26 02:57:20;;;;;;;10.63;6.67;;;5.60;99.90;;;;;;4240574;27;20597;-65
2021/04/26 02:59:23;;;;;;;10.27;6.93;;;5.60;99.90;;;;;;4240333;27;20280;-61
2021/04/26 03:01:25;;;;;;;11.03;6.57;;;5.50;99.90;;;;;;4241210;27;20735;-62
2021/04/26 03:03:28;;;;;;;14.57;7.57;;;5.50;99.90;;;;;;4236110;27;20312;-64
2021/04/26 03:05:30;;;;;;;12.80;6.63;;;5.40;99.90;;;;;;4239245;27;20275;-61
2021/04/26 03:07:34;;;;;;;11.90;7.07;;;5.40;99.90;;;;;;4236799;27;20272;-61
2021/04/26 03:09:36;;;;;;;13.43;6.83;;;5.40;99.90;;;;;;4223471;28;20360;-66
2021/04/26 03:11:37;;;;;;;11.00;7.53;;;5.40;99.90;;;;;;4223859;27;20841;-61
2021/04/26 03:13:40;;;;;;;12.33;7.27;;;5.40;99.90;;;;;;4223604;28;20731;-61
2021/04/26 03:15:41;;;;;;;10.50;6.50;;;5.40;99.90;;;;;;4228593;27;20267;-61
2021/04/26 03:17:44;;;;;;;13.00;7.27;;;5.30;99.90;;;;;;4239833;27;20284;-60
2021/04/26 03:19:46;;;;;;;11.90;7.27;;;5.30;99.90;;;;;;4228963;27;20264;-61
2021/04/26 03:21:49;;;;;;;13.97;7.33;;;5.30;99.90;;;;;;4222910;28;20309;-62
2021/04/26 03:23:50;;;;;;;10.53;6.73;;;5.30;99.90;;;;;;4223617;27;20280;-61
2021/04/26 03:25:55;;;;;;;16.67;7.40;;;5.30;99.90;;;;;;4222622;28;20356;-62
2021/04/26 03:27:56;;;;;;;13.00;7.07;;;5.30;99.90;;;;;;4224033;28;21120;-61
2021/04/26 03:29:58;;;;;;;12.23;7.33;;;5.30;99.90;;;;;;4222532;27;20345;-61
2021/04/26 03:32:01;;;;;;;18.30;7.60;;;5.30;99.90;;;;;;4222428;28;20298;-69
2021/04/26 03:34:02;;;;;;;11.70;7.20;;;5.30;99.90;;;;;;4227839;27;20914;-72
2021/04/26 03:36:05;;;;;;;13.97;7.43;;;5.30;99.90;;;;;;4240562;27;20657;-61
2021/04/26 03:38:07;;;;;;;11.43;7.70;;;5.30;99.90;;;;;;4240029;27;20803;-73
2021/04/26 03:40:08;;;;;;;12.40;7.77;;;5.30;99.90;;;;;;4229265;27;21379;-62
2021/04/26 03:42:11;;;;;;;13.70;8.03;;;5.40;99.90;;;;;;4223097;28;20265;-61
2021/04/26 03:44:15;;;;;;;14.00;8.77;;;5.40;99.90;;;;;;4229957;27;21159;-61
2021/04/26 03:46:16;;;;;;;15.60;8.13;;;5.50;99.90;;;;;;4240328;27;20272;-61
2021/04/26 03:48:17;;;;;;;13.07;8.57;;;5.50;99.90;;;;;;4238388;27;20283;-62
2021/04/26 03:50:20;;;;;;;15.33;8.60;;;5.50;99.90;;;;;;4239625;27;20341;-71
2021/04/26 03:52:21;;;;;;;12.77;8.07;;;5.70;99.90;;;;;;4239146;27;20271;-63
2021/04/26 03:54:23;;;;;;;16.13;8.57;;;6.00;99.90;;;;;;4239858;27;20279;-62
2021/04/26 03:56:24;;;;;;;12.27;7.63;;;6.30;99.90;;;;;;4238890;27;20320;-60
2021/04/26 03:58:25;;;;;;;10.50;7.60;;;6.50;99.90;;;;;;4239960;27;20701;-62
2021/04/26 04:00:26;;;;;;;20.67;9.30;;;6.60;99.90;;;;;;4234363;27;20272;-60
2021/04/26 04:02:28;;;;;;;18.73;8.67;;;6.60;99.90;;;;;;4240715;27;20271;-57
2021/04/26 04:04:29;;;;;;;15.67;7.80;;;6.70;99.90;;;;;;4238536;27;20684;-59
2021/04/26 04:06:31;;;;;;;13.87;8.07;;;6.90;99.90;;;;;;4229783;27;20287;-62
2021/04/26 04:08:33;;;;;;;13.47;8.33;;;7.10;99.90;;;;;;4221617;28;20704;-72
2021/04/26 04:10:34;;;;;;;15.73;7.40;;;7.50;99.90;;;;;;4224021;27;20268;-71
2021/04/26 04:12:36;;;;;;;12.97;7.37;;;7.70;99.90;;;;;;4221992;28;20272;-62
2021/04/26 04:14:37;;;;;;;11.57;7.77;;;8.10;99.90;;;;;;4222080;28;20263;-71
2021/04/26 04:16:38;;;;;;;14.97;6.50;;;8.40;99.90;;;;;;4233835;27;20275;-62
2021/04/26 04:18:39;;;;;;;11.73;7.80;;;8.70;99.90;;;;;;4232810;27;20088;-70
2021/04/26 04:20:40;;;;;;;11.27;7.87;;;9.10;99.90;;;;;;4223675;27;20544;-77
2021/04/26 04:22:41;;;;;;;14.67;8.17;;;9.20;99.90;;;;;;4222050;28;20096;-69
2021/04/26 04:24:43;;;;;;;13.50;7.57;;;9.30;99.90;;;;;;4223105;28;20069;-65
2021/04/26 04:26:44;;;;;;;13.23;7.40;;;9.60;99.90;;;;;;4220730;28;20437;-60
2021/04/26 04:28:47;;;;;;;11.83;6.93;;;9.80;99.90;;;;;;4222096;28;20047;-60
2021/04/26 04:30:48;;;;;;;17.83;7.87;;;9.80;99.90;;;;;;4224800;27;20043;-78
2021/04/26 04:32:49;;;;;;;20.53;9.00;;;9.70;99.90;;;;;;4237717;27;20083;-68
2021/04/26 04:34:50;;;;;;;17.70;8.00;;;9.80;99.90;;;;;;4237594;27;20104;-63
2021/04/26 04:36:52;;;;;;;14.30;7.97;;;9.80;99.90;;;;;;4239049;27;20658;-67
2021/04/26 04:38:53;;;;;;;13.37;8.03;;;9.90;99.90;;;;;;4238160;27;20084;-62
2021/04/26 04:40:56;;;;;;;12.67;6.67;;;9.90;99.90;;;;;;4237015;27;20092;-67
2021/04/26 04:42:57;;;;;;;11.00;7.03;;;10.20;99.90;;;;;;4224257;28;21102;-61
2021/04/26 04:44:58;;;;;;;15.40;7.60;;;10.40;99.90;;;;;;4232588;27;20132;-63
2021/04/26 04:46:59;;;;;;;17.23;8.57;;;10.60;99.90;;;;;;4228668;27;20047;-62
2021/04/26 04:49:01;;;;;;;11.73;7.10;;;10.90;99.90;;;;;;4230669;28;20043;-62
2021/04/26 04:51:03;;;;;;;11.60;6.60;;;11.00;99.90;;;;;;4238599;27;20043;-63
2021/04/26 04:53:05;;;;;;;11.73;6.00;;;11.10;99.40;;;;;;4236897;27;20582;-63
2021/04/26 04:55:07;;;;;;;13.17;6.63;;;11.20;99.10;;;;;;4224227;28;20438;-64
2021/04/26 04:57:08;;;;;;;6.97;5.67;;;11.30;97.70;;;;;;4220324;28;20073;-61
2021/04/26 04:59:09;;;;;;;9.93;5.77;;;11.30;97.00;;;;;;4222241;28;20043;-64
2021/04/26 05:01:10;;;;;;;8.33;5.20;;;11.20;96.70;;;;;;4220972;28;20570;-62
2021/04/26 05:03:11;;;;;;;8.17;5.40;;;11.00;96.10;;;;;;4238253;28;20253;-65
2021/04/26 05:05:13;;;;;;;7.40;5.17;;;10.90;96.00;;;;;;4237905;28;20131;-62
2021/04/26 05:07:14;;;;;;;9.37;5.40;;;11.00;95.90;;;;;;4238975;27;20035;-61
2021/04/26 05:09:17;;;;;;;13.53;6.10;;;10.80;95.20;;;;;;4237951;28;20035;-62
2021/04/26 05:11:18;;;;;;;11.33;5.93;;;10.70;95.30;;;;;;4239278;28;20420;-61
2021/04/26 05:13:19;;;;;;;10.20;5.43;;;10.70;95.20;;;;;;4238552;28;20039;-66
2021/04/26 05:15:20;;;;;;;12.40;5.80;;;10.70;94.70;;;;;;4238888;28;20035;-62
2021/04/26 05:17:22;;;;;;;8.57;5.07;;;10.60;94.40;;;;;;4238714;27;20047;-63
2021/04/26 05:19:24;;;;;;;9.17;5.33;;;10.30;94.40;;;;;;4238690;27;20047;-62
2021/04/26 05:21:25;;;;;;;8.73;4.87;;;10.50;94.60;;;;;;4238718;28;20083;-62
2021/04/26 05:23:26;;;;;;;8.20;4.53;;;10.70;94.20;;;;;;4238366;28;20417;-69
2021/04/26 05:25:28;;;;;;;9.27;5.23;;;11.00;93.30;;;;;;4239262;28;20031;-65
2021/04/26 05:27:29;;;;;;;12.27;5.27;;;11.00;92.60;;;;;;4238129;27;20039;-62
2021/04/26 05:29:30;;;;;;;6.57;4.43;;;11.00;92.30;;;;;;4239633;27;20088;-62
2021/04/26 05:31:31;;;;;;;12.53;7.20;;;11.00;92.00;;;;;;4238564;28;20027;-67
2021/04/26 05:33:32;;;;;;;10.13;5.27;;;11.40;90.80;;;;;;4240065;28;20038;-63
2021/04/26 05:35:34;;;;;;;7.67;4.40;;;11.50;89.90;;;;;;4238629;28;20474;-64
2021/04/26 05:37:35;;;;;;;13.50;4.73;;;11.50;88.40;;;;;;4239085;28;20031;-64
2021/04/26 05:39:37;;;;;;;10.37;3.70;;;11.60;87.50;;;;;;4238033;28;20092;-63
2021/04/26 05:41:38;;;;;;;7.83;4.80;;;11.40;86.00;;;;;;4238516;28;20084;-62
2021/04/26 05:43:39;;;;;;;26.53;5.40;;;11.60;85.10;;;;;;4238065;28;20060;-63
2021/04/26 05:45:41;;;;;;;8.33;4.53;;;11.90;82.90;;;;;;4238810;28;20031;-62
2021/04/26 05:47:43;;;;;;;10.93;4.33;;;12.10;80.00;;;;;;4237574;28;20069;-65
2021/04/26 05:49:44;;;;;;;6.23;3.63;;;12.30;79.30;;;;;;4238281;27;20035;-63
2021/04/26 05:51:45;;;;;;;8.87;3.80;;;12.30;77.40;;;;;;4238699;27;20566;-62
2021/04/26 05:53:46;;;;;;;6.07;3.40;;;12.20;76.40;;;;;;4238044;27;20027;-62
2021/04/26 05:55:48;;;;;;;7.53;3.20;;;11.70;76.10;;;;;;4241281;27;20035;-62
2021/04/26 05:57:49;;;;;;;7.63;3.60;;;11.40;76.00;;;;;;4239079;27;20043;-62
2021/04/26 05:59:52;;;;;;;8.37;3.50;;;11.30;76.30;;;;;;4242133;27;20023;-62
2021/04/26 06:01:53;;;;;;;6.90;3.67;;;11.20;76.40;;;;;;4240840;27;20820;-63
2021/04/26 06:03:54;;;;;;;7.50;3.60;;;11.00;77.10;;;;;;4242067;27;20031;-65
2021/04/26 06:05:56;;;;;;;7.07;3.40;;;10.90;77.60;;;;;;4241029;27;20035;-63
2021/04/26 06:07:59;;;;;;;10.30;4.27;;;11.10;76.70;;;;;;4241986;27;20072;-63
2021/04/26 06:10:00;;;;;;;6.00;3.20;;;11.00;75.90;;;;;;4240420;27;20092;-61
2021/04/26 06:12:01;;;;;;;5.60;3.73;;;11.00;75.90;;;;;;4242082;27;20088;-64
2021/04/26 06:14:02;;;;;;;5.87;4.03;;;11.00;75.60;;;;;;4240850;27;20095;-67
2021/04/26 06:16:04;;;;;;;5.90;3.33;;;11.00;75.60;;;;;;4241924;27;20031;-64
2021/04/26 06:18:14;;;;;;;4.90;3.17;;;11.20;74.90;;;;;;4240886;27;20035;-64
2021/04/26 06:20:15;;;;;;;7.10;2.78;;;11.10;73.30;;;;;;4241553;27;20376;-62
2021/04/26 06:22:17;;;;;;;7.60;3.27;;;10.90;73.80;;;;;;4240708;27;20031;-63
2021/04/26 06:24:18;;;;;;;7.77;3.50;;;10.90;73.00;;;;;;4240510;27;20083;-72
2021/04/26 06:26:19;;;;;;;10.00;3.80;;;10.90;73.20;;;;;;4241061;27;20027;-62
2021/04/26 06:28:20;;;;;;;10.70;4.77;;;10.90;73.30;;;;;;4241027;27;20027;-69
2021/04/26 06:30:21;;;;;;;4.80;2.90;;;11.20;73.40;;;;;;4241391;27;20043;-67
2021/04/26 06:32:24;;;;;;;7.20;3.10;;;11.40;71.60;;;;;;4240473;27;20528;-62
2021/04/26 06:34:25;;;;;;;7.83;3.47;;;11.20;70.80;;;;;;4241655;27;20047;-63
2021/04/26 06:36:27;;;;;;;10.07;3.90;;;11.30;71.70;;;;;;4239975;27;20039;-74
2021/04/26 06:38:28;;;;;;;5.17;3.17;;;11.60;71.10;;;;;;4241273;27;20039;-63
2021/04/26 06:40:29;;;;;;;14.33;3.03;;;11.90;70.60;;;;;;4240092;27;20542;-62
2021/04/26 06:42:30;;;;;;;5.70;2.57;;;11.80;69.90;;;;;;4241719;27;20107;-62
2021/04/26 06:44:31;;;;;;;12.30;3.47;;;11.90;69.90;;;;;;4240458;27;20087;-65
2021/04/26 06:46:33;;;;;;;6.67;2.83;;;11.90;68.90;;;;;;4241029;27;20091;-63
2021/04/26 06:48:34;;;;;;;4.50;2.90;;;12.00;69.40;;;;;;4238984;27;21066;-64
2021/04/26 06:50:36;;;;;;;8.60;3.60;;;12.20;69.10;;;;;;4240734;27;20100;-64
2021/04/26 06:52:37;;;;;;;5.30;3.00;;;12.60;68.20;;;;;;4240195;27;20038;-64
2021/04/26 06:54:38;;;;;;;6.10;2.90;;;12.70;66.00;;;;;;4240224;27;20035;-66
2021/04/26 06:56:39;;;;;;;4.80;2.33;;;12.60;65.60;;;;;;4239881;27;20056;-63
2021/04/26 06:58:40;;;;;;;4.30;2.60;;;12.60;65.60;;;;;;4239758;27;20023;-64
2021/04/26 07:00:41;;;;;;;6.60;2.77;;;12.40;65.70;;;;;;4240890;27;20080;-63
2021/04/26 07:02:43;;;;;;;4.67;2.70;;;12.20;66.00;;;;;;4240407;27;20482;-63
2021/04/26 07:04:44;;;;;;;10.80;2.27;;;12.10;66.30;;;;;;4241077;27;20100;-63
2021/04/26 07:06:45;;;;;;;8.00;2.90;;;11.80;65.10;;;;;;4239835;27;20039;-63
2021/04/26 07:08:46;;;;;;;7.10;2.93;;;11.60;64.80;;;;;;4241158;27;20103;-66
2021/04/26 07:10:48;;;;;;;4.00;2.10;;;11.50;64.60;;;;;;4238112;27;20043;-63
2021/04/26 07:12:50;;;;;;;3.60;2.50;;;11.60;64.70;;;;;;4241332;27;20072;-68
2021/04/26 07:14:51;;;;;;;6.50;3.00;;;11.60;64.40;;;;;;4239760;27;20035;-63
2021/04/26 07:16:52;;;;;;;4.37;2.63;;;11.90;64.40;;;;;;4240189;27;20027;-64
2021/04/26 07:18:53;;;;;;;8.20;2.57;;;12.10;64.40;;;;;;4239530;27;20445;-64
2021/04/26 07:20:54;;;;;;;7.50;2.33;;;12.40;64.10;;;;;;4240216;27;20337;-66
2021/04/26 07:22:55;;;;;;;4.83;2.43;;;12.10;62.70;;;;;;4239767;27;20035;-64
2021/04/26 07:24:57;;;;;;;5.07;2.70;;;12.10;63.20;;;;;;4239841;27;20025;-63
2021/04/26 07:26:58;;;;;;;5.47;2.43;;;11.90;63.50;;;;;;4239587;27;20080;-63
2021/04/26 07:28:59;;;;;;;8.80;2.63;;;11.90;63.70;;;;;;4239653;27;20093;-63
2021/04/26 07:31:01;;;;;;;5.77;3.00;;;12.20;63.10;;;;;;4240638;27;20023;-68
2021/04/26 07:33:02;;;;;;;13.50;2.90;;;12.30;62.60;;;;;;4239311;27;20103;-63
2021/04/26 07:35:05;;;;;;;4.30;2.00;;;12.40;62.10;;;;;;4240448;27;20031;-64
2021/04/26 07:37:06;;;;;;;5.00;2.10;;;12.40;60.70;;;;;;4239151;27;20547;-62
2021/04/26 07:39:08;;;;;;;6.30;2.00;;;12.40;60.40;;;;;;4240422;27;20035;-73
2021/04/26 07:41:10;;;;;;;3.63;2.00;;;12.40;59.90;;;;;;4238862;27;20651;-63
2021/04/26 07:43:11;;;;;;;4.77;1.90;;;12.20;59.80;;;;;;4240228;27;20535;-71
2021/04/26 07:45:19;;;;;;;3.67;1.83;;;12.30;59.80;;;;;;4239158;27;20543;-64
2021/04/26 07:47:20;;;;;;;5.60;2.63;;;12.50;59.30;;;;;;4240239;27;20032;-65
2021/04/26 07:49:22;;;;;;;4.07;1.73;;;12.60;58.20;;;;;;4239170;27;20039;-64
2021/04/26 07:51:25;;;;;;;4.30;2.10;;;12.60;58.30;;;;;;4239689;27;20099;-63
2021/04/26 07:53:27;;;;;;;7.23;2.20;;;12.60;57.40;;;;;;4239311;27;20048;-64
2021/04/26 07:55:28;;;;;;;4.47;2.13;;;12.50;56.70;;;;;;4240083;27;20049;-72
2021/04/26 07:57:31;;;;;;;1.87;1.30;;;12.30;56.60;;;;;;4238851;27;20051;-63
2021/04/26 07:59:32;;;;;;;7.33;1.90;;;12.10;56.80;;;;;;4239610;27;20756;-63
2021/04/26 08:01:33;;;;;;;3.27;1.70;;;12.10;57.30;;;;;;4239070;27;20093;-62
2021/04/26 08:03:34;;;;;;;4.00;1.77;;;12.20;57.10;;;;;;4239230;27;20027;-62
2021/04/26 08:05:36;;;;;;;5.60;2.03;;;12.10;56.70;;;;;;4240317;27;20080;-62
2021/04/26 08:07:37;;;;;;;8.73;2.83;;;12.10;56.00;;;;;;4238885;27;20042;-67
2021/04/26 08:09:38;;;;;;;4.27;2.67;;;12.10;55.60;;;;;;4239525;27;20038;-62
2021/04/26 08:11:39;;;;;;;2.80;1.67;;;12.30;55.90;;;;;;4238478;27;20544;-66
2021/04/26 08:13:41;;;;;;;3.90;1.97;;;12.20;54.30;;;;;;4239839;27;20035;-64
2021/04/26 08:15:43;;;;;;;5.07;2.53;;;12.20;55.30;;;;;;4238765;27;20096;-63
2021/04/26 08:17:44;;;;;;;4.87;2.23;;;12.10;54.00;;;;;;4239731;27;20035;-64
2021/04/26 08:19:45;;;;;;;9.10;2.60;;;12.20;54.40;;;;;;4237986;27;20132;-72
2021/04/26 08:21:46;;;;;;;6.90;2.20;;;12.10;52.90;;;;;;4239680;27;20565;-72
2021/04/26 08:23:47;;;;;;;6.53;2.90;;;11.60;52.50;;;;;;4238887;27;20027;-66
2021/04/26 08:25:49;;;;;;;4.10;1.97;;;11.50;54.70;;;;;;4239740;27;20055;-67
2021/04/26 08:27:50;;;;;;;5.10;1.30;;;11.70;54.50;;;;;;4238674;27;20726;-63
2021/04/26 08:29:51;;;;;;;4.50;1.23;;;11.90;52.80;;;;;;4238729;27;20096;-63
2021/04/26 08:31:52;;;;;;;2.80;1.80;;;12.00;53.00;;;;;;4238663;27;20072;-61
2021/04/26 08:33:53;;;;;;;4.27;2.30;;;12.00;52.40;;;;;;4238917;27;20061;-62
2021/04/26 08:35:55;;;;;;;3.77;2.27;;;12.10;52.20;;;;;;4239560;27;20092;-63
2021/04/26 08:37:56;;;;;;;2.07;1.30;;;12.20;50.70;;;;;;4238427;27;20023;-64
2021/04/26 08:39:57;;;;;;;3.57;1.77;;;12.30;49.60;;;;;;4239713;27;20031;-63
2021/04/26 08:41:58;;;;;;;2.20;1.67;;;12.20;49.70;;;;;;4238358;27;20094;-64
2021/04/26 08:44:00;;;;;;;6.37;2.20;;;12.10;49.00;;;;;;4239759;27;20119;-64
2021/04/26 08:46:02;;;;;;;2.77;1.60;;;12.20;48.50;;;;;;4238314;27;20039;-63
2021/04/26 08:48:04;;;;;;;11.23;2.23;;;12.20;47.40;;;;;;4239008;27;20043;-61
2021/04/26 08:50:07;;;;;;;3.60;1.57;;;12.00;48.20;;;;;;4237956;28;20051;-64
2021/04/26 08:52:08;;;;;;;7.30;2.33;;;12.10;48.50;;;;;;4238951;28;20027;-63
2021/04/26 08:54:16;;;;;;;5.13;1.47;;;12.10;48.50;;;;;;4237841;28;20808;-68
2021/04/26 08:56:17;;;;;;;5.83;1.20;;;12.10;47.80;;;;;;4239309;28;20061;-67
2021/04/26 08:58:19;;;;;;;3.83;1.40;;;12.30;48.00;;;;;;4238057;28;20027;-69
2021/04/26 09:00:21;;;;;;;1.93;1.57;;;12.40;47.90;;;;;;4238749;27;20111;-62
2021/04/26 09:02:22;;;;;;;7.70;1.53;;;12.30;46.70;;;;;;4238072;28;20100;-64
2021/04/26 09:04:23;;;;;;;4.73;1.50;;;11.50;45.30;;;;;;4238510;27;20051;-70
2021/04/26 09:06:24;;;;;;;5.53;1.57;;;11.60;46.60;;;;;;4239507;28;20524;-62
2021/04/26 09:08:27;;;;;;;5.20;2.10;;;11.20;45.90;;;;;;4238276;28;20084;-68
2021/04/26 09:10:45;;;;;;;7.80;2.10;;;11.00;46.20;;;;;;4239059;27;20051;-71
2021/04/26 09:12:46;;;;;;;5.00;1.57;;;10.80;46.40;;;;;;4238235;28;20155;-71
2021/04/26 09:14:55;;;;;;;2.17;1.33;;;11.00;47.70;;;;;;4238915;28;20023;-66
2021/04/26 09:16:56;;;;;;;3.10;1.53;;;11.30;47.30;;;;;;4238319;27;20039;-67
2021/04/26 09:19:03;;;;;;;2.83;1.70;;;11.50;46.80;;;;;;4238742;28;20143;-67
2021/04/26 09:21:33;;;;;;;6.00;1.70;;;11.70;47.50;;;;;;4238276;27;20107;-65
2021/04/26 09:23:34;;;;;;;4.57;1.90;;;11.30;45.80;;;;;;4238630;28;20437;-63
2021/04/26 09:25:41;;;;;;;5.17;1.40;;;10.90;47.10;;;;;;4237834;28;20040;-72
2021/04/26 09:27:54;;;;;;;6.07;1.63;;;10.70;48.10;;;;;;4238902;28;20035;-67
2021/04/26 09:29:55;;;;;;;4.00;1.83;;;10.80;49.60;;;;;;4238716;27;20043;-67
2021/04/26 09:32:13;;;;;;;4.03;1.43;;;11.00;49.40;;;;;;4242223;27;20668;-64
2021/04/26 09:34:35;;;;;;;3.03;1.47;;;11.30;48.60;;;;;;4241696;27;20065;-71
2021/04/26 09:36:40;;;;;;;3.43;2.10;;;11.20;47.80;;;;;;4240921;27;20533;-62
2021/04/26 09:38:43;;;;;;;4.53;1.83;;;11.30;48.90;;;;;;4241773;27;20031;-63
2021/04/26 09:41:10;;;;;;;5.37;1.70;;;11.40;47.80;;;;;;4242267;27;20077;-65
2021/04/26 09:43:20;;;;;;;4.73;2.00;;;11.20;47.00;;;;;;4241562;27;20039;-62
2021/04/26 09:45:40;;;;;;;8.15;1.52;;;11.00;47.70;;;;;;4241469;27;20023;-62
2021/04/26 09:47:41;;;;;;;3.72;1.75;;;11.00;47.80;;;;;;4241586;27;20599;-69
2021/04/26 09:50:03;;;;;;;2.67;1.70;;;10.90;48.30;;;;;;4241048;27;20776;-62
2021/04/26 09:52:15;;;;;;;7.93;2.10;;;11.00;48.00;;;;;;4241612;27;20456;-62
2021/04/26 09:54:16;;;;;;;2.77;1.40;;;10.90;48.30;;;;;;4241579;27;20402;-65
2021/04/26 09:56:22;;;;;;;3.33;1.43;;;10.90;47.90;;;;;;4240976;27;20526;-70
2021/04/26 09:58:24;;;;;;;3.87;1.60;;;10.70;47.60;;;;;;4241343;27;20139;-63
2021/04/26 10:00:25;;;;;;;7.00;1.37;;;10.80;48.50;;;;;;4241089;27;20039;-69
2021/04/26 10:02:26;;;;;;;5.37;1.07;;;10.70;47.60;;;;;;4241801;27;20019;-75
2021/04/26 10:04:27;;;;;;;2.00;1.20;;;10.60;48.60;;;;;;4240455;27;20035;-73
2021/04/26 10:06:29;;;;;;;5.03;1.63;;;10.70;48.90;;;;;;4241834;27;20102;-63
2021/04/26 10:08:30;;;;;;;4.17;1.83;;;10.80;48.60;;;;;;4240677;27;20050;-63
2021/04/26 10:10:33;;;;;;;13.07;2.53;;;10.90;48.30;;;;;;4242000;27;20043;-62
2021/04/26 10:12:34;;;;;;;8.57;1.53;;;10.80;48.00;;;;;;4240255;27;20051;-74
2021/04/26 10:14:42;;;;;;;11.13;2.20;;;10.90;47.60;;;;;;4241960;27;20035;-71
2021/04/26 10:17:01;;;;;;;7.33;1.67;;;10.90;46.30;;;;;;4240505;27;20103;-74
2021/04/26 10:19:05;;;;;;;3.77;1.50;;;10.70;47.20;;;;;;4241965;27;20088;-65
2021/04/26 10:21:18;;;;;;;9.07;1.87;;;10.80;47.50;;;;;;4240639;27;20044;-65
2021/04/26 10:23:35;;;;;;;5.43;1.63;;;10.80;47.00;;;;;;4241508;27;20119;-66
2021/04/26 10:25:38;;;;;;;3.40;1.60;;;10.90;46.50;;;;;;4240105;27;20425;-64
2021/04/26 10:27:43;;;;;;;10.77;1.70;;;10.90;46.50;;;;;;4241819;27;20027;-65
2021/04/26 10:30:01;;;;;;;4.57;0.80;;;10.90;46.60;;;;;;4240111;27;20043;-63
2021/04/26 10:32:09;;;;;;;8.70;1.60;;;10.80;45.20;;;;;;4241865;27;20035;-65
2021/04/26 10:34:10;;;;;;;5.87;1.43;;;10.70;46.10;;;;;;4240136;27;20027;-69
2021/04/26 10:36:42;;;;;;;7.13;1.20;;;10.80;46.30;;;;;;4241766;27;20087;-64
2021/04/26 10:38:47;;;;;;;2.90;1.23;;;10.80;46.60;;;;;;4240037;27;20012;-62
2021/04/26 10:40:48;;;;;;;5.93;2.17;;;11.00;46.80;;;;;;4241004;27;20084;-63
2021/04/26 10:42:51;;;;;;;5.20;1.50;;;10.90;46.50;;;;;;4239702;27;20051;-64